P. B. Shah — WDB8609 — position and weather

sailwx.info

Track history (hours):
 
Tides and Currents Weather Stations Pressure Air Temp Water Temp Dewpoint Dewpoint Depression Visibility Wind Speed Wind Dir Waves Ship Positions

P. B. Shah

Owner: INGRAM BARGE COMPANY, Nashville, TN. More information available from US FCC via Universal Licensing System and Coast Guard Vessel Documentation Center.

Last reported at 2015-Jan-15 04:31 UTC. Time now 2015-Jan-27 10:30 UTC.
Position N 30°21' W 091°14'.
Warning: this ship's position is 12 days out of date.

Length 46 m; draft 3.1 m.

Type: Towing. MMSI: 366961480.

Date/timePositionNaut miles runAvg speedWind from/ knotsBaromVisibWave heightAir tempDewpointWater temp
2015-Jan-15 04:31N 30°21' W 091°14'26 1.7
2015-Jan-14 13:25N 30°04' W 090°51'0 0.0
2015-Jan-14 12:10N 30°04' W 090°51'0 0.0
2015-Jan-14 11:21N 30°04' W 090°51'5 3.9
2015-Jan-14 10:05N 29°59' W 090°49'32 1.1
2015-Jan-13 05:32N 29°56' W 090°13'4 3.4
2015-Jan-13 04:21N 29°55' W 090°08'4 4.6
2015-Jan-13 03:33N 29°55' W 090°04'1 1.2
2015-Jan-13 02:29N 29°56' W 090°03'0 0.0
2015-Jan-13 01:31N 29°56' W 090°03'0 0.0
2015-Jan-13 00:32N 29°56' W 090°03'0 0.0
2015-Jan-12 23:33N 29°56' W 090°03'2 2.2
2015-Jan-12 22:33N 29°57' W 090°01'6 2.3
2015-Jan-12 20:09N 29°52' W 089°57'3 0.1
2015-Jan-10 21:27N 29°54' W 089°55'6 5.9
2015-Jan-10 20:31N 29°57' W 090°00'3 2.7
2015-Jan-10 19:29N 29°56' W 090°03'4 4.0
2015-Jan-10 18:24N 29°57' W 090°08'  
Track history (hours):
 
Tides and Currents Weather Stations Pressure Air Temp Water Temp Dewpoint Dewpoint Depression Visibility Wind Speed Wind Dir Waves Ship Positions

P. B. Shah

Owner: INGRAM BARGE COMPANY, Nashville, TN. More information available from US FCC via Universal Licensing System and Coast Guard Vessel Documentation Center.

Last reported at 2015-Jan-15 04:31 UTC. Time now 2015-Jan-27 10:30 UTC.
Position N 30°21' W 091°14'.
Warning: this ship's position is 12 days out of date.

Length 46 m; draft 3.1 m.

Type: Towing. MMSI: 366961480.

Date/timePositionNaut miles runAvg speedWind from/ knotsBaromVisibWave heightAir tempDewpointWater temp
2015-Jan-15 04:31N 30°21' W 091°14'26 1.7
2015-Jan-14 13:25N 30°04' W 090°51'0 0.0
2015-Jan-14 12:10N 30°04' W 090°51'0 0.0
2015-Jan-14 11:21N 30°04' W 090°51'5 3.9
2015-Jan-14 10:05N 29°59' W 090°49'32 1.1
2015-Jan-13 05:32N 29°56' W 090°13'4 3.4
2015-Jan-13 04:21N 29°55' W 090°08'4 4.6
2015-Jan-13 03:33N 29°55' W 090°04'1 1.2
2015-Jan-13 02:29N 29°56' W 090°03'0 0.0
2015-Jan-13 01:31N 29°56' W 090°03'0 0.0
2015-Jan-13 00:32N 29°56' W 090°03'0 0.0
2015-Jan-12 23:33N 29°56' W 090°03'2 2.2
2015-Jan-12 22:33N 29°57' W 090°01'6 2.3
2015-Jan-12 20:09N 29°52' W 089°57'3 0.1
2015-Jan-10 21:27N 29°54' W 089°55'6 5.9
2015-Jan-10 20:31N 29°57' W 090°00'3 2.7
2015-Jan-10 19:29N 29°56' W 090°03'4 4.0
2015-Jan-10 18:24N 29°57' W 090°08'  

Dump ship's entire track history